sensor_id;sensor_type;location;lat;lon;timestamp;pressure;altitude;pressure_sealevel;temperature
69420;BMP280;71621;52.030;113.516;2024-03-02T00:00:06;92997.25;;;-10.71
69420;BMP280;71621;52.030;113.516;2024-03-02T00:03:15;93003.31;;;-10.69
69420;BMP280;71621;52.030;113.516;2024-03-02T00:06:20;93003.13;;;-10.71
69420;BMP280;71621;52.030;113.516;2024-03-02T00:09:25;93000.22;;;-10.67
69420;BMP280;71621;52.030;113.516;2024-03-02T00:12:28;93005.34;;;-10.54
69420;BMP280;71621;52.030;113.516;2024-03-02T00:15:52;92999.06;;;-10.45
69420;BMP280;71621;52.030;113.516;2024-03-02T00:18:56;92997.66;;;-10.46
69420;BMP280;71621;52.030;113.516;2024-03-02T00:22:04;93002.72;;;-10.41
69420;BMP280;71621;52.030;113.516;2024-03-02T00:25:08;92998.44;;;-10.38
69420;BMP280;71621;52.030;113.516;2024-03-02T00:28:30;93004.16;;;-10.32
69420;BMP280;71621;52.030;113.516;2024-03-02T00:31:39;93009.72;;;-10.28
69420;BMP280;71621;52.030;113.516;2024-03-02T00:34:43;93003.69;;;-10.30
69420;BMP280;71621;52.030;113.516;2024-03-02T00:37:47;93003.03;;;-10.23
69420;BMP280;71621;52.030;113.516;2024-03-02T00:40:50;92999.81;;;-10.16
69420;BMP280;71621;52.030;113.516;2024-03-02T00:44:05;93006.81;;;-10.03
69420;BMP280;71621;52.030;113.516;2024-03-02T00:47:09;93008.88;;;-10.02
69420;BMP280;71621;52.030;113.516;2024-03-02T00:50:13;93002.03;;;-9.99
69420;BMP280;71621;52.030;113.516;2024-03-02T00:53:28;93002.41;;;-9.95
69420;BMP280;71621;52.030;113.516;2024-03-02T00:56:33;93008.50;;;-9.85
69420;BMP280;71621;52.030;113.516;2024-03-02T00:59:38;93014.63;;;-9.75
69420;BMP280;71621;52.030;113.516;2024-03-02T01:02:41;93016.38;;;-9.70
69420;BMP280;71621;52.030;113.516;2024-03-02T01:05:47;93022.25;;;-9.62
69420;BMP280;71621;52.030;113.516;2024-03-02T01:08:51;93014.41;;;-9.56
69420;BMP280;71621;52.030;113.516;2024-03-02T01:11:55;93015.00;;;-9.42
69420;BMP280;71621;52.030;113.516;2024-03-02T01:14:58;93025.50;;;-9.40
69420;BMP280;71621;52.030;113.516;2024-03-02T01:18:02;93019.66;;;-9.41
69420;BMP280;71621;52.030;113.516;2024-03-02T01:21:06;93006.56;;;-9.35
69420;BMP280;71621;52.030;113.516;2024-03-02T01:24:11;93012.13;;;-9.31
69420;BMP280;71621;52.030;113.516;2024-03-02T01:27:16;93014.69;;;-9.31
69420;BMP280;71621;52.030;113.516;2024-03-02T01:30:20;93004.19;;;-9.33
69420;BMP280;71621;52.030;113.516;2024-03-02T01:33:24;93010.59;;;-9.26
69420;BMP280;71621;52.030;113.516;2024-03-02T01:36:28;93003.53;;;-9.18
69420;BMP280;71621;52.030;113.516;2024-03-02T01:39:32;93015.00;;;-8.98
69420;BMP280;71621;52.030;113.516;2024-03-02T01:42:39;93008.50;;;-8.92
69420;BMP280;71621;52.030;113.516;2024-03-02T01:45:43;93004.88;;;-8.89
69420;BMP280;71621;52.030;113.516;2024-03-02T01:48:47;92996.78;;;-8.77
69420;BMP280;71621;52.030;113.516;2024-03-02T01:51:51;93005.66;;;-8.65
69420;BMP280;71621;52.030;113.516;2024-03-02T01:54:55;93011.72;;;-8.55
69420;BMP280;71621;52.030;113.516;2024-03-02T01:57:59;93007.75;;;-8.48
69420;BMP280;71621;52.030;113.516;2024-03-02T02:01:03;93012.78;;;-8.43
69420;BMP280;71621;52.030;113.516;2024-03-02T02:04:07;93014.88;;;-8.34
69420;BMP280;71621;52.030;113.516;2024-03-02T02:07:11;93009.13;;;-8.40
69420;BMP280;71621;52.030;113.516;2024-03-02T02:10:15;93003.44;;;-8.38
69420;BMP280;71621;52.030;113.516;2024-03-02T02:13:19;93011.91;;;-8.30
69420;BMP280;71621;52.030;113.516;2024-03-02T02:16:22;93018.66;;;-8.27
69420;BMP280;71621;52.030;113.516;2024-03-02T02:19:26;93018.66;;;-8.19
69420;BMP280;71621;52.030;113.516;2024-03-02T02:22:30;93014.00;;;-8.29
69420;BMP280;71621;52.030;113.516;2024-03-02T02:25:34;93012.09;;;-8.20
69420;BMP280;71621;52.030;113.516;2024-03-02T02:28:37;93010.72;;;-8.06
69420;BMP280;71621;52.030;113.516;2024-03-02T02:31:42;93011.78;;;-8.02
69420;BMP280;71621;52.030;113.516;2024-03-02T02:34:46;93001.88;;;-8.03
69420;BMP280;71621;52.030;113.516;2024-03-02T02:37:50;93000.00;;;-7.95
69420;BMP280;71621;52.030;113.516;2024-03-02T02:40:55;93005.19;;;-7.95
69420;BMP280;71621;52.030;113.516;2024-03-02T02:43:59;92996.88;;;-7.93
69420;BMP280;71621;52.030;113.516;2024-03-02T02:47:02;92981.00;;;-7.90
69420;BMP280;71621;52.030;113.516;2024-03-02T02:50:09;92988.41;;;-7.94
69420;BMP280;71621;52.030;113.516;2024-03-02T02:53:13;92985.50;;;-7.90
69420;BMP280;71621;52.030;113.516;2024-03-02T02:56:17;92981.50;;;-7.84
69420;BMP280;71621;52.030;113.516;2024-03-02T02:59:20;92976.50;;;-7.89
69420;BMP280;71621;52.030;113.516;2024-03-02T03:02:24;92987.75;;;-7.79
69420;BMP280;71621;52.030;113.516;2024-03-02T03:05:28;92977.53;;;-7.85
69420;BMP280;71621;52.030;113.516;2024-03-02T03:08:33;92986.53;;;-7.78
69420;BMP280;71621;52.030;113.516;2024-03-02T03:11:36;92982.34;;;-7.74
69420;BMP280;71621;52.030;113.516;2024-03-02T03:14:41;92969.53;;;-7.64
69420;BMP280;71621;52.030;113.516;2024-03-02T03:17:45;92980.75;;;-7.54
69420;BMP280;71621;52.030;113.516;2024-03-02T03:20:50;92979.72;;;-7.51
69420;BMP280;71621;52.030;113.516;2024-03-02T03:23:54;92982.47;;;-7.49
69420;BMP280;71621;52.030;113.516;2024-03-02T03:26:58;92976.75;;;-7.39
69420;BMP280;71621;52.030;113.516;2024-03-02T03:30:02;92965.63;;;-7.25
69420;BMP280;71621;52.030;113.516;2024-03-02T03:33:06;92963.31;;;-7.13
69420;BMP280;71621;52.030;113.516;2024-03-02T03:36:10;92956.88;;;-7.04
69420;BMP280;71621;52.030;113.516;2024-03-02T03:39:13;92949.91;;;-6.94
69420;BMP280;71621;52.030;113.516;2024-03-02T03:42:17;92963.59;;;-7.01
69420;BMP280;71621;52.030;113.516;2024-03-02T03:45:20;92956.19;;;-7.05
69420;BMP280;71621;52.030;113.516;2024-03-02T03:48:24;92960.84;;;-7.03
69420;BMP280;71621;52.030;113.516;2024-03-02T03:51:33;92953.19;;;-6.93
69420;BMP280;71621;52.030;113.516;2024-03-02T03:54:38;92952.09;;;-6.83
69420;BMP280;71621;52.030;113.516;2024-03-02T03:57:42;92954.50;;;-6.77
69420;BMP280;71621;52.030;113.516;2024-03-02T04:00:45;92956.34;;;-6.70
69420;BMP280;71621;52.030;113.516;2024-03-02T04:03:49;92944.69;;;-6.61
69420;BMP280;71621;52.030;113.516;2024-03-02T04:06:53;92947.25;;;-6.54
69420;BMP280;71621;52.030;113.516;2024-03-02T04:09:57;92937.53;;;-6.53
69420;BMP280;71621;52.030;113.516;2024-03-02T04:13:01;92950.66;;;-6.44
69420;BMP280;71621;52.030;113.516;2024-03-02T04:16:05;92937.91;;;-6.32
69420;BMP280;71621;52.030;113.516;2024-03-02T04:19:09;92928.28;;;-6.22
69420;BMP280;71621;52.030;113.516;2024-03-02T04:22:13;92938.53;;;-6.24
69420;BMP280;71621;52.030;113.516;2024-03-02T04:25:26;92930.25;;;-6.30
69420;BMP280;71621;52.030;113.516;2024-03-02T04:28:30;92927.97;;;-6.26
69420;BMP280;71621;52.030;113.516;2024-03-02T04:31:33;92928.66;;;-6.25
69420;BMP280;71621;52.030;113.516;2024-03-02T04:34:38;92925.84;;;-6.20
69420;BMP280;71621;52.030;113.516;2024-03-02T04:37:41;92923.09;;;-6.22
69420;BMP280;71621;52.030;113.516;2024-03-02T04:40:45;92929.13;;;-6.19
69420;BMP280;71621;52.030;113.516;2024-03-02T04:43:49;92928.59;;;-6.18
69420;BMP280;71621;52.030;113.516;2024-03-02T04:46:52;92919.22;;;-6.13
69420;BMP280;71621;52.030;113.516;2024-03-02T04:49:56;92910.03;;;-5.97
69420;BMP280;71621;52.030;113.516;2024-03-02T04:53:01;92907.88;;;-5.91
69420;BMP280;71621;52.030;113.516;2024-03-02T04:56:04;92902.38;;;-5.95
69420;BMP280;71621;52.030;113.516;2024-03-02T04:59:31;92899.47;;;-5.81
69420;BMP280;71621;52.030;113.516;2024-03-02T05:02:34;92900.16;;;-5.81
69420;BMP280;71621;52.030;113.516;2024-03-02T05:05:39;92894.50;;;-5.70
69420;BMP280;71621;52.030;113.516;2024-03-02T05:08:42;92883.75;;;-5.56
69420;BMP280;71621;52.030;113.516;2024-03-02T05:11:48;92899.44;;;-5.64
69420;BMP280;71621;52.030;113.516;2024-03-02T05:15:11;92904.91;;;-5.70
69420;BMP280;71621;52.030;113.516;2024-03-02T05:18:15;92892.72;;;-5.67
69420;BMP280;71621;52.030;113.516;2024-03-02T05:21:18;92878.88;;;-5.52
69420;BMP280;71621;52.030;113.516;2024-03-02T05:24:22;92879.91;;;-5.38
69420;BMP280;71621;52.030;113.516;2024-03-02T05:27:26;92877.03;;;-5.33
69420;BMP280;71621;52.030;113.516;2024-03-02T05:30:30;92875.84;;;-5.22
69420;BMP280;71621;52.030;113.516;2024-03-02T05:33:33;92882.47;;;-5.11
69420;BMP280;71621;52.030;113.516;2024-03-02T05:36:37;92893.06;;;-5.09
69420;BMP280;71621;52.030;113.516;2024-03-02T05:39:42;92872.56;;;-5.22
69420;BMP280;71621;52.030;113.516;2024-03-02T05:42:49;92861.47;;;-5.23
69420;BMP280;71621;52.030;113.516;2024-03-02T05:45:52;92863.81;;;-5.17
69420;BMP280;71621;52.030;113.516;2024-03-02T05:48:56;92856.41;;;-5.11
69420;BMP280;71621;52.030;113.516;2024-03-02T05:52:00;92839.97;;;-5.14
69420;BMP280;71621;52.030;113.516;2024-03-02T05:55:04;92862.19;;;-5.13
69420;BMP280;71621;52.030;113.516;2024-03-02T05:58:08;92856.69;;;-5.17
69420;BMP280;71621;52.030;113.516;2024-03-02T06:01:30;92851.72;;;-5.22
69420;BMP280;71621;52.030;113.516;2024-03-02T06:04:34;92839.00;;;-5.18
69420;BMP280;71621;52.030;113.516;2024-03-02T06:07:39;92849.94;;;-4.93
69420;BMP280;71621;52.030;113.516;2024-03-02T06:10:43;92849.56;;;-4.80
69420;BMP280;71621;52.030;113.516;2024-03-02T06:13:47;92834.06;;;-4.78
69420;BMP280;71621;52.030;113.516;2024-03-02T06:16:50;92818.31;;;-4.70
69420;BMP280;71621;52.030;113.516;2024-03-02T06:19:54;92845.34;;;-4.65
69420;BMP280;71621;52.030;113.516;2024-03-02T06:22:57;92824.06;;;-4.62
69420;BMP280;71621;52.030;113.516;2024-03-02T06:26:02;92841.75;;;-4.70
69420;BMP280;71621;52.030;113.516;2024-03-02T06:29:05;92843.25;;;-4.76
69420;BMP280;71621;52.030;113.516;2024-03-02T06:32:09;92847.25;;;-4.66
69420;BMP280;71621;52.030;113.516;2024-03-02T06:35:13;92829.41;;;-4.60
69420;BMP280;71621;52.030;113.516;2024-03-02T06:38:16;92842.06;;;-4.66
69420;BMP280;71621;52.030;113.516;2024-03-02T06:41:20;92843.84;;;-4.68
69420;BMP280;71621;52.030;113.516;2024-03-02T06:44:24;92827.34;;;-4.71
69420;BMP280;71621;52.030;113.516;2024-03-02T06:47:27;92838.34;;;-4.72
69420;BMP280;71621;52.030;113.516;2024-03-02T06:50:31;92835.34;;;-4.69
69420;BMP280;71621;52.030;113.516;2024-03-02T06:53:35;92835.34;;;-4.69
69420;BMP280;71621;52.030;113.516;2024-03-02T06:56:39;92835.84;;;-4.70
69420;BMP280;71621;52.030;113.516;2024-03-02T06:59:43;92849.31;;;-4.64
69420;BMP280;71621;52.030;113.516;2024-03-02T07:02:47;92825.59;;;-4.59
69420;BMP280;71621;52.030;113.516;2024-03-02T07:05:51;92835.88;;;-4.61
69420;BMP280;71621;52.030;113.516;2024-03-02T07:08:54;92837.00;;;-4.54
69420;BMP280;71621;52.030;113.516;2024-03-02T07:11:58;92837.69;;;-4.54
69420;BMP280;71621;52.030;113.516;2024-03-02T07:15:02;92840.72;;;-4.57
69420;BMP280;71621;52.030;113.516;2024-03-02T07:18:06;92840.03;;;-4.48
69420;BMP280;71621;52.030;113.516;2024-03-02T07:21:10;92830.13;;;-4.40
69420;BMP280;71621;52.030;113.516;2024-03-02T07:24:14;92832.06;;;-4.31
69420;BMP280;71621;52.030;113.516;2024-03-02T07:27:19;92839.50;;;-4.37
69420;BMP280;71621;52.030;113.516;2024-03-02T07:30:23;92826.59;;;-4.35
69420;BMP280;71621;52.030;113.516;2024-03-02T07:33:27;92825.75;;;-4.28
69420;BMP280;71621;52.030;113.516;2024-03-02T07:36:31;92828.09;;;-4.22
69420;BMP280;71621;52.030;113.516;2024-03-02T07:39:36;92825.50;;;-4.12
69420;BMP280;71621;52.030;113.516;2024-03-02T07:42:40;92833.31;;;-4.03
69420;BMP280;71621;52.030;113.516;2024-03-02T07:45:44;92834.25;;;-4.08
69420;BMP280;71621;52.030;113.516;2024-03-02T07:48:47;92833.56;;;-4.08
69420;BMP280;71621;52.030;113.516;2024-03-02T07:51:52;92831.41;;;-4.12
69420;BMP280;71621;52.030;113.516;2024-03-02T07:54:55;92820.16;;;-4.14
69420;BMP280;71621;52.030;113.516;2024-03-02T07:58:00;92826.72;;;-4.23
69420;BMP280;71621;52.030;113.516;2024-03-02T08:01:04;92817.41;;;-4.16
69420;BMP280;71621;52.030;113.516;2024-03-02T08:04:08;92818.59;;;-4.08
69420;BMP280;71621;52.030;113.516;2024-03-02T08:07:12;92833.19;;;-4.14
69420;BMP280;71621;52.030;113.516;2024-03-02T08:10:16;92832.34;;;-4.27
69420;BMP280;71621;52.030;113.516;2024-03-02T08:13:19;92828.34;;;-4.18
69420;BMP280;71621;52.030;113.516;2024-03-02T08:16:23;92833.19;;;-4.14
69420;BMP280;71621;52.030;113.516;2024-03-02T08:19:28;92827.28;;;-4.05
69420;BMP280;71621;52.030;113.516;2024-03-02T08:22:32;92824.38;;;-4.00
69420;BMP280;71621;52.030;113.516;2024-03-02T08:25:36;92823.69;;;-3.90
69420;BMP280;71621;52.030;113.516;2024-03-02T08:28:41;92830.16;;;-3.91
69420;BMP280;71621;52.030;113.516;2024-03-02T08:31:45;92836.84;;;-3.88
69420;BMP280;71621;52.030;113.516;2024-03-02T08:34:48;92837.41;;;-3.90
69420;BMP280;71621;52.030;113.516;2024-03-02T08:37:52;92827.09;;;-3.88
69420;BMP280;71621;52.030;113.516;2024-03-02T08:40:56;92828.91;;;-3.90
69420;BMP280;71621;52.030;113.516;2024-03-02T08:44:00;92835.78;;;-3.85
69420;BMP280;71621;52.030;113.516;2024-03-02T08:47:04;92840.03;;;-3.90
69420;BMP280;71621;52.030;113.516;2024-03-02T08:50:08;92840.16;;;-3.98
69420;BMP280;71621;52.030;113.516;2024-03-02T08:53:12;92834.94;;;-3.98
69420;BMP280;71621;52.030;113.516;2024-03-02T08:56:16;92829.88;;;-4.05
69420;BMP280;71621;52.030;113.516;2024-03-02T08:59:20;92834.41;;;-4.06
69420;BMP280;71621;52.030;113.516;2024-03-02T09:02:24;92842.63;;;-4.09
69420;BMP280;71621;52.030;113.516;2024-03-02T09:05:28;92839.63;;;-4.15
69420;BMP280;71621;52.030;113.516;2024-03-02T09:08:31;92841.56;;;-4.16
69420;BMP280;71621;52.030;113.516;2024-03-02T09:11:35;92845.41;;;-4.17
69420;BMP280;71621;52.030;113.516;2024-03-02T09:14:40;92850.44;;;-4.19
69420;BMP280;71621;52.030;113.516;2024-03-02T09:17:44;92844.00;;;-4.28
69420;BMP280;71621;52.030;113.516;2024-03-02T09:20:48;92844.00;;;-4.28
69420;BMP280;71621;52.030;113.516;2024-03-02T09:23:51;92845.00;;;-4.13
69420;BMP280;71621;52.030;113.516;2024-03-02T09:26:55;92851.44;;;-4.05
69420;BMP280;71621;52.030;113.516;2024-03-02T09:29:59;92846.78;;;-4.06
69420;BMP280;71621;52.030;113.516;2024-03-02T09:33:03;92852.94;;;-4.11
69420;BMP280;71621;52.030;113.516;2024-03-02T09:36:20;92849.63;;;-4.21
69420;BMP280;71621;52.030;113.516;2024-03-02T09:39:24;92847.59;;;-4.23
69420;BMP280;71621;52.030;113.516;2024-03-02T09:42:30;92853.47;;;-4.22
69420;BMP280;71621;52.030;113.516;2024-03-02T09:45:36;92856.22;;;-4.20
69420;BMP280;71621;52.030;113.516;2024-03-02T09:48:39;92865.03;;;-4.26
69420;BMP280;71621;52.030;113.516;2024-03-02T09:51:48;92864.59;;;-4.32
69420;BMP280;71621;52.030;113.516;2024-03-02T09:54:54;92861.28;;;-4.42
69420;BMP280;71621;52.030;113.516;2024-03-02T09:57:58;92869.25;;;-4.40
69420;BMP280;71621;52.030;113.516;2024-03-02T10:01:04;92865.69;;;-4.44
69420;BMP280;71621;52.030;113.516;2024-03-02T10:04:12;92873.91;;;-4.48
69420;BMP280;71621;52.030;113.516;2024-03-02T10:07:17;92866.63;;;-4.49
69420;BMP280;71621;52.030;113.516;2024-03-02T10:10:21;92870.47;;;-4.51
69420;BMP280;71621;52.030;113.516;2024-03-02T10:13:26;92871.72;;;-4.52
69420;BMP280;71621;52.030;113.516;2024-03-02T10:16:29;92873.75;;;-4.50
69420;BMP280;71621;52.030;113.516;2024-03-02T10:19:33;92875.97;;;-4.56
69420;BMP280;71621;52.030;113.516;2024-03-02T10:22:40;92880.59;;;-4.64
69420;BMP280;71621;52.030;113.516;2024-03-02T10:25:44;92884.41;;;-4.75
69420;BMP280;71621;52.030;113.516;2024-03-02T10:28:59;92885.06;;;-4.84
69420;BMP280;71621;52.030;113.516;2024-03-02T10:32:03;92889.16;;;-4.91
69420;BMP280;71621;52.030;113.516;2024-03-02T10:35:07;92885.28;;;-4.99
69420;BMP280;71621;52.030;113.516;2024-03-02T10:38:12;92892.66;;;-5.06
69420;BMP280;71621;52.030;113.516;2024-03-02T10:41:18;92891.28;;;-5.07
69420;BMP280;71621;52.030;113.516;2024-03-02T10:44:23;92898.50;;;-5.15
69420;BMP280;71621;52.030;113.516;2024-03-02T10:47:29;92888.50;;;-5.18
69420;BMP280;71621;52.030;113.516;2024-03-02T10:50:34;92897.72;;;-5.35
69420;BMP280;71621;52.030;113.516;2024-03-02T10:53:38;92900.50;;;-5.50
69420;BMP280;71621;52.030;113.516;2024-03-02T10:56:44;92904.81;;;-5.62
69420;BMP280;71621;52.030;113.516;2024-03-02T10:59:56;92899.16;;;-5.68
69420;BMP280;71621;52.030;113.516;2024-03-02T11:03:07;92901.69;;;-5.78
69420;BMP280;71621;52.030;113.516;2024-03-02T11:06:14;92915.84;;;-5.89
69420;BMP280;71621;52.030;113.516;2024-03-02T11:09:22;92911.41;;;-5.96
69420;BMP280;71621;52.030;113.516;2024-03-02T11:12:32;92918.97;;;-6.07
69420;BMP280;71621;52.030;113.516;2024-03-02T11:15:40;92914.75;;;-6.20
69420;BMP280;71621;52.030;113.516;2024-03-02T11:18:44;92917.97;;;-6.29
69420;BMP280;71621;52.030;113.516;2024-03-02T11:22:06;92917.47;;;-6.35
69420;BMP280;71621;52.030;113.516;2024-03-02T11:25:27;92918.78;;;-6.44
69420;BMP280;71621;52.030;113.516;2024-03-02T11:28:35;92915.56;;;-6.60
69420;BMP280;71621;52.030;113.516;2024-03-02T11:31:58;92919.56;;;-6.59
69420;BMP280;71621;52.030;113.516;2024-03-02T11:35:06;92926.56;;;-6.69
69420;BMP280;71621;52.030;113.516;2024-03-02T11:38:10;92932.03;;;-6.82
69420;BMP280;71621;52.030;113.516;2024-03-02T11:41:14;92934.28;;;-6.86
69420;BMP280;71621;52.030;113.516;2024-03-02T11:44:18;92934.03;;;-6.98
69420;BMP280;71621;52.030;113.516;2024-03-02T11:47:22;92935.28;;;-7.07
69420;BMP280;71621;52.030;113.516;2024-03-02T11:50:46;92936.66;;;-7.06
69420;BMP280;71621;52.030;113.516;2024-03-02T11:53:51;92932.69;;;-7.14
69420;BMP280;71621;52.030;113.516;2024-03-02T11:56:58;92940.34;;;-7.24
69420;BMP280;71621;52.030;113.516;2024-03-02T12:00:03;92934.50;;;-7.32
69420;BMP280;71621;52.030;113.516;2024-03-02T12:03:12;92934.03;;;-7.38
69420;BMP280;71621;52.030;113.516;2024-03-02T12:06:15;92941.66;;;-7.48
69420;BMP280;71621;52.030;113.516;2024-03-02T12:09:21;92933.53;;;-7.52
69420;BMP280;71621;52.030;113.516;2024-03-02T12:12:24;92935.44;;;-7.53
69420;BMP280;71621;52.030;113.516;2024-03-02T12:15:31;92934.22;;;-7.44
69420;BMP280;71621;52.030;113.516;2024-03-02T12:18:35;92931.41;;;-7.38
69420;BMP280;71621;52.030;113.516;2024-03-02T12:21:40;92935.53;;;-7.35
69420;BMP280;71621;52.030;113.516;2024-03-02T12:24:44;92928.19;;;-7.46
69420;BMP280;71621;52.030;113.516;2024-03-02T12:27:56;92930.06;;;-7.47
69420;BMP280;71621;52.030;113.516;2024-03-02T12:31:00;92939.41;;;-7.52
69420;BMP280;71621;52.030;113.516;2024-03-02T12:34:04;92932.84;;;-7.53
69420;BMP280;71621;52.030;113.516;2024-03-02T12:37:12;92935.63;;;-7.51
69420;BMP280;71621;52.030;113.516;2024-03-02T12:40:18;92933.53;;;-7.52
69420;BMP280;71621;52.030;113.516;2024-03-02T12:43:22;92929.22;;;-7.50
69420;BMP280;71621;52.030;113.516;2024-03-02T12:46:27;92929.03;;;-7.44
69420;BMP280;71621;52.030;113.516;2024-03-02T12:49:30;92935.53;;;-7.35
69420;BMP280;71621;52.030;113.516;2024-03-02T12:52:35;92940.19;;;-7.26
69420;BMP280;71621;52.030;113.516;2024-03-02T12:55:39;92938.97;;;-7.17
69420;BMP280;71621;52.030;113.516;2024-03-02T12:58:42;92934.75;;;-7.13
69420;BMP280;71621;52.030;113.516;2024-03-02T13:01:53;92939.25;;;-7.13
69420;BMP280;71621;52.030;113.516;2024-03-02T13:04:58;92937.72;;;-7.09
69420;BMP280;71621;52.030;113.516;2024-03-02T13:08:02;92939.81;;;-7.15
69420;BMP280;71621;52.030;113.516;2024-03-02T13:11:07;92943.13;;;-7.22
69420;BMP280;71621;52.030;113.516;2024-03-02T13:14:11;92932.59;;;-7.32
69420;BMP280;71621;52.030;113.516;2024-03-02T13:17:15;92929.38;;;-7.48
69420;BMP280;71621;52.030;113.516;2024-03-02T13:20:19;92932.69;;;-7.62
69420;BMP280;71621;52.030;113.516;2024-03-02T13:23:25;92929.63;;;-7.76
69420;BMP280;71621;52.030;113.516;2024-03-02T13:26:29;92933.66;;;-7.90
69420;BMP280;71621;52.030;113.516;2024-03-02T13:29:33;92942.09;;;-8.05
69420;BMP280;71621;52.030;113.516;2024-03-02T13:32:36;92938.66;;;-8.15
69420;BMP280;71621;52.030;113.516;2024-03-02T13:35:40;92930.38;;;-8.29
69420;BMP280;71621;52.030;113.516;2024-03-02T13:38:43;92927.78;;;-8.29
69420;BMP280;71621;52.030;113.516;2024-03-02T13:41:48;92932.63;;;-8.26
69420;BMP280;71621;52.030;113.516;2024-03-02T13:44:56;92946.09;;;-8.27
69420;BMP280;71621;52.030;113.516;2024-03-02T13:48:00;92947.31;;;-8.28
69420;BMP280;71621;52.030;113.516;2024-03-02T13:51:06;92951.13;;;-8.29
69420;BMP280;71621;52.030;113.516;2024-03-02T13:54:10;92953.53;;;-8.39
69420;BMP280;71621;52.030;113.516;2024-03-02T13:57:14;92951.78;;;-8.59
69420;BMP280;71621;52.030;113.516;2024-03-02T14:00:18;92957.16;;;-8.65
69420;BMP280;71621;52.030;113.516;2024-03-02T14:03:22;92954.38;;;-8.74
69420;BMP280;71621;52.030;113.516;2024-03-02T14:06:27;92951.59;;;-8.69
69420;BMP280;71621;52.030;113.516;2024-03-02T14:09:31;92949.38;;;-8.65
69420;BMP280;71621;52.030;113.516;2024-03-02T14:12:34;92950.22;;;-8.70
69420;BMP280;71621;52.030;113.516;2024-03-02T14:15:38;92958.47;;;-8.79
69420;BMP280;71621;52.030;113.516;2024-03-02T14:18:42;92958.31;;;-8.81
69420;BMP280;71621;52.030;113.516;2024-03-02T14:21:46;92965.56;;;-8.80
69420;BMP280;71621;52.030;113.516;2024-03-02T14:24:50;92966.75;;;-8.81
69420;BMP280;71621;52.030;113.516;2024-03-02T14:27:54;92962.59;;;-8.91
69420;BMP280;71621;52.030;113.516;2024-03-02T14:31:18;92963.94;;;-8.98
69420;BMP280;71621;52.030;113.516;2024-03-02T14:34:22;92963.56;;;-9.10
69420;BMP280;71621;52.030;113.516;2024-03-02T14:37:26;92969.41;;;-9.17
69420;BMP280;71621;52.030;113.516;2024-03-02T14:40:30;92962.16;;;-9.18
69420;BMP280;71621;52.030;113.516;2024-03-02T14:43:34;92968.41;;;-9.14
69420;BMP280;71621;52.030;113.516;2024-03-02T14:46:40;92975.28;;;-9.16
69420;BMP280;71621;52.030;113.516;2024-03-02T14:49:46;92967.53;;;-9.16
69420;BMP280;71621;52.030;113.516;2024-03-02T14:52:50;92970.47;;;-9.12
69420;BMP280;71621;52.030;113.516;2024-03-02T14:55:54;92970.09;;;-9.16
69420;BMP280;71621;52.030;113.516;2024-03-02T14:58:58;92967.31;;;-9.26
69420;BMP280;71621;52.030;113.516;2024-03-02T15:02:07;92971.41;;;-9.31
69420;BMP280;71621;52.030;113.516;2024-03-02T15:05:11;92976.19;;;-9.42
69420;BMP280;71621;52.030;113.516;2024-03-02T15:08:14;92970.78;;;-9.60
69420;BMP280;71621;52.030;113.516;2024-03-02T15:11:18;92970.31;;;-9.71
69420;BMP280;71621;52.030;113.516;2024-03-02T15:14:22;92970.44;;;-9.85
69420;BMP280;71621;52.030;113.516;2024-03-02T15:17:26;92964.00;;;-9.91
69420;BMP280;71621;52.030;113.516;2024-03-02T15:20:30;92970.34;;;-10.00
69420;BMP280;71621;52.030;113.516;2024-03-02T15:23:33;92968.19;;;-10.09
69420;BMP280;71621;52.030;113.516;2024-03-02T15:26:37;92967.78;;;-10.21
69420;BMP280;71621;52.030;113.516;2024-03-02T15:29:41;92970.28;;;-10.28
69420;BMP280;71621;52.030;113.516;2024-03-02T15:32:44;92970.13;;;-10.30
69420;BMP280;71621;52.030;113.516;2024-03-02T15:35:48;92962.16;;;-10.32
69420;BMP280;71621;52.030;113.516;2024-03-02T15:38:51;92971.56;;;-10.43
69420;BMP280;71621;52.030;113.516;2024-03-02T15:41:55;92974.34;;;-10.54
69420;BMP280;71621;52.030;113.516;2024-03-02T15:44:59;92964.16;;;-10.60
69420;BMP280;71621;52.030;113.516;2024-03-02T15:48:03;92970.09;;;-10.65
69420;BMP280;71621;52.030;113.516;2024-03-02T15:51:06;92969.75;;;-10.69
69420;BMP280;71621;52.030;113.516;2024-03-02T15:54:12;92972.16;;;-10.71
69420;BMP280;71621;52.030;113.516;2024-03-02T15:57:16;92970.34;;;-10.76
69420;BMP280;71621;52.030;113.516;2024-03-02T16:00:20;92968.97;;;-10.77
69420;BMP280;71621;52.030;113.516;2024-03-02T16:03:25;92978.09;;;-10.76
69420;BMP280;71621;52.030;113.516;2024-03-02T16:06:29;92987.03;;;-10.64
69420;BMP280;71621;52.030;113.516;2024-03-02T16:09:33;92983.94;;;-10.62
69420;BMP280;71621;52.030;113.516;2024-03-02T16:12:37;92985.75;;;-10.70
69420;BMP280;71621;52.030;113.516;2024-03-02T16:15:40;92985.84;;;-10.76
69420;BMP280;71621;52.030;113.516;2024-03-02T16:18:44;92987.84;;;-10.82
69420;BMP280;71621;52.030;113.516;2024-03-02T16:21:48;92990.63;;;-10.80
69420;BMP280;71621;52.030;113.516;2024-03-02T16:24:51;92986.16;;;-10.79
69420;BMP280;71621;52.030;113.516;2024-03-02T16:27:56;92999.06;;;-10.79
69420;BMP280;71621;52.030;113.516;2024-03-02T16:31:00;92996.56;;;-10.72
69420;BMP280;71621;52.030;113.516;2024-03-02T16:34:04;92999.16;;;-10.72
69420;BMP280;71621;52.030;113.516;2024-03-02T16:37:08;93004.81;;;-10.73
69420;BMP280;71621;52.030;113.516;2024-03-02T16:40:12;93011.06;;;-10.82
69420;BMP280;71621;52.030;113.516;2024-03-02T16:43:18;93015.44;;;-10.90
69420;BMP280;71621;52.030;113.516;2024-03-02T16:46:22;93005.53;;;-10.99
69420;BMP280;71621;52.030;113.516;2024-03-02T16:49:26;93011.09;;;-11.08
69420;BMP280;71621;52.030;113.516;2024-03-02T16:52:29;93011.44;;;-11.25
69420;BMP280;71621;52.030;113.516;2024-03-02T16:55:33;93019.44;;;-11.42
69420;BMP280;71621;52.030;113.516;2024-03-02T16:58:37;93011.91;;;-11.53
69420;BMP280;71621;52.030;113.516;2024-03-02T17:01:40;93005.69;;;-11.58
69420;BMP280;71621;52.030;113.516;2024-03-02T17:04:44;93014.19;;;-11.50
69420;BMP280;71621;52.030;113.516;2024-03-02T17:07:48;93010.72;;;-11.39
69420;BMP280;71621;52.030;113.516;2024-03-02T17:10:53;93020.53;;;-11.38